Latest Weather Observations for Southern Cross Airport

IDW60801

Issued at 8:33 pm WST Wednesday 22 November 2017 (issued every 30 minutes, with the page automatically refreshed every 10 minutes)

About weather observations | Map of weather stations | Latest weather observations for WA | Other Formats
Station Details ID: 012320 Name: SOUTHERN CROSS AIRFIELD Lat: -31.24 Lon: 119.36 Height: 347.4 m
Data from the previous 72 hours. | See also: Recent months at Southern Cross Airport
Date/Time
WST
Temp
°C
App
Temp
°C
Dew
Point
°C
Rel
Hum
%
Delta-T
°C
Wind Press
QNH
hPa
Press
MSL
hPa
Rain since
9am
mm
Dir  Spd
km/h
Gust
km/h
Spd
kts
Gust
kts
22/08:30pm - - - - - ESE 15 19 8 10 1018.0 1016.5 0.0
22/08:00pm - - - - - ESE 15 20 8 11 1017.5 1016.1 0.0
22/07:30pm - - - - - ESE 13 17 7 9 1017.3 1015.9 0.0
22/07:00pm - - - - - ESE 15 20 8 11 1017.0 1015.6 0.0
22/06:30pm - - - - - ESE 19 30 10 16 1016.8 1015.4 0.0
22/06:00pm - - - - - ESE 20 28 11 15 1016.5 1015.1 0.0
22/05:30pm - - - - - ESE 22 33 12 18 1016.2 1014.8 0.0
22/05:00pm - - - - - SE 19 32 10 17 1016.0 1014.6 0.0
22/04:30pm - - - - - ESE 24 32 13 17 1016.0 1014.6 0.0
22/04:00pm - - - - - ESE 19 32 10 17 1016.2 1014.8 0.0
22/03:30pm - - - - - ESE 20 33 11 18 1016.4 1015.0 0.0
22/03:00pm - - - - - ESE 19 28 10 15 1016.6 1015.2 0.0
22/02:30pm - - - - - SE 19 28 10 15 1016.7 1015.3 0.0
22/02:00pm - - - - - ESE 20 30 11 16 1017.0 1015.6 0.0
22/01:30pm - - - - - E 17 28 9 15 1017.4 1016.0 0.0
22/01:00pm - - - - - SE 22 35 12 19 1017.9 1016.4 0.0
22/12:30pm - - - - - ESE 19 35 10 19 1018.2 1016.8 0.0
22/12:00pm - - - - - E 17 28 9 15 1018.8 1017.4 0.0
22/11:30am - - - - - E 20 32 11 17 1019.3 1017.9 0.0
22/11:00am - - - - - E 19 32 10 17 1019.8 1018.4 0.0
22/10:30am - - - - - E 20 35 11 19 1020.2 1018.8 0.0
22/10:00am - - - - - E 22 35 12 19 1020.7 1019.3 0.0
22/09:30am - - - - - E 19 28 10 15 1021.1 1019.7 0.0
22/09:00am - - - - - E 19 24 10 13 1021.2 1019.8 0.0
22/08:30am - - - - - E 22 33 12 18 1021.7 1020.3 0.0
22/08:00am - - - - - E 22 32 12 17 1021.8 1020.4 0.0
22/07:30am - - - - - ESE 26 39 14 21 1021.8 1020.4 0.0
22/07:00am - - - - - ESE 20 32 11 17 1021.7 1020.3 0.0
22/06:30am - - - - - ESE 17 26 9 14 1021.9 1020.5 0.0
22/06:00am - - - - - ESE 13 20 7 11 1021.8 1020.4 0.0
22/05:30am - - - - - ESE 9 13 5 7 1021.8 1020.4 0.0
22/05:00am - - - - - ESE 7 11 4 6 1021.7 1020.3 0.0
22/04:30am - - - - - SE 13 17 7 9 1021.5 1020.1 0.0
22/04:00am - - - - - ESE 13 19 7 10 1021.1 1019.7 0.0
22/03:30am - - - - - ESE 17 22 9 12 1020.8 1019.4 0.0
22/03:00am - - - - - SE 20 28 11 15 1020.8 1019.4 0.0
22/02:30am - - - - - ESE 20 24 11 13 1021.0 1019.6 0.0
22/02:00am - - - - - ESE 17 20 9 11 1021.0 1019.6 0.0
22/01:30am - - - - - ESE 17 26 9 14 1021.2 1019.8 0.0
22/01:00am - - - - - SE 22 28 12 15 1021.2 1019.8 0.0
22/12:30am - - - - - SE 22 33 12 18 1021.1 1019.7 0.0
22/12:00am - - - - - ESE 26 33 14 18 1021.0 1019.6 0.0
 
Date/Time
WST
Temp
°C
App
Temp
°C
Dew
Point
°C
Rel
Hum
%
Delta-T
°C
Wind Press
QNH
hPa
Press
MSL
hPa
Rain since
9am
mm
Dir  Spd
km/h
Gust
km/h
Spd
kts
Gust
kts
21/11:30pm - - - - - SE 22 28 12 15 1020.9 1019.5 0.0
21/11:00pm - - - - - SE 24 33 13 18 1020.8 1019.4 0.0
21/10:30pm - - - - - SE 26 37 14 20 1020.5 1019.2 0.0
21/10:00pm - - - - - SE 30 41 16 22 1020.3 1018.9 0.0
21/09:30pm - - - - - SE 33 46 18 25 1019.9 1018.5 0.0
21/09:00pm - - - - - SE 32 39 17 21 1019.6 1018.2 0.0
21/08:30pm - - - - - ESE 28 35 15 19 1019.2 1017.8 0.0
21/08:00pm - - - - - SE 28 39 15 21 1018.5 1017.1 0.0
21/07:30pm - - - - - ESE 32 44 17 24 1018.2 1016.8 0.0
21/07:00pm - - - - - SE 30 39 16 21 1017.7 1016.2 0.0
21/06:30pm - - - - - SE 28 39 15 21 1017.0 1015.6 0.0
21/06:00pm - - - - - SE 26 35 14 19 1016.5 1015.1 0.0
21/05:30pm - - - - - SSE 24 35 13 19 1016.2 1014.8 0.0
21/05:00pm - - - - - SSE 24 37 13 20 1016.0 1014.6 0.0
21/04:30pm - - - - - SSE 24 33 13 18 1015.7 1014.3 0.0
21/04:00pm - - - - - SSE 28 37 15 20 1015.9 1014.5 0.0
21/03:30pm - - - - - S 24 32 13 17 1015.4 1013.9 0.0
21/03:09pm - - - - - SSE 28 46 15 25 1015.4 1013.9 0.0
21/03:00pm - - - - - SSE 24 41 13 22 1015.4 1013.9 0.0
21/02:30pm - - - - - S 22 35 12 19 1015.5 1014.1 0.0
21/02:00pm - - - - - S 24 37 13 20 1015.5 1014.1 0.0
21/01:30pm - - - - - SE 24 32 13 17 1015.5 1014.1 0.0
21/01:00pm - - - - - S 28 44 15 24 1015.6 1014.2 0.0
21/12:30pm - - - - - SE 26 41 14 22 1015.7 1014.3 0.0
21/12:00pm - - - - - S 26 37 14 20 1016.1 1014.7 0.0
21/11:30am - - - - - SSE 24 35 13 19 1016.3 1014.9 0.0
21/11:00am - - - - - S 26 35 14 19 1016.4 1015.0 0.0
21/10:30am - - - - - SSE 20 28 11 15 1016.7 1015.3 0.0
21/10:00am - - - - - SSE 22 32 12 17 1016.8 1015.4 0.0
21/09:30am - - - - - SE 24 35 13 19 1016.6 1015.2 0.0
21/09:00am - - - - - SSE 30 39 16 21 1016.8 1015.4 0.0
21/08:30am - - - - - SSE 30 39 16 21 1017.1 1015.7 0.0
21/08:00am - - - - - SSE 35 43 19 23 1017.2 1015.8 0.0
21/07:30am - - - - - SSE 28 35 15 19 1017.1 1015.7 0.0
21/07:00am - - - - - SSE 30 43 16 23 1016.8 1015.4 0.0
21/06:30am - - - - - SSE 28 37 15 20 1016.3 1014.9 0.0
21/06:00am - - - - - SSE 19 26 10 14 1016.0 1014.6 0.0
21/05:30am - - - - - SSE 20 28 11 15 1015.6 1014.2 0.0
21/05:00am - - - - - SSE 22 32 12 17 1015.3 1013.8 0.0
21/04:30am - - - - - S 28 37 15 20 1014.9 1013.4 0.0
21/04:00am - - - - - SSE 20 24 11 13 1014.2 1012.8 0.0
21/03:30am - - - - - S 19 24 10 13 1014.0 1012.6 0.0
21/03:00am - - - - - S 19 22 10 12 1013.7 1012.3 0.0
21/02:30am - - - - - SSE 19 28 10 15 1013.8 1012.4 0.0
21/02:00am - - - - - SSE 17 33 9 18 1013.4 1012.0 0.0
21/01:30am - - - - - SSE 22 30 12 16 1013.3 1011.9 0.0
21/01:00am - - - - - SE 24 35 13 19 1013.2 1011.8 0.0
21/12:30am - - - - - SE 30 41 16 22 1013.1 1011.7 0.0
21/12:00am - - - - - SSE 26 35 14 19 1012.9 1011.4 0.0
 
Date/Time
WST
Temp
°C
App
Temp
°C
Dew
Point
°C
Rel
Hum
%
Delta-T
°C
Wind Press
QNH
hPa
Press
MSL
hPa
Rain since
9am
mm
Dir  Spd
km/h
Gust
km/h
Spd
kts
Gust
kts
20/11:30pm - - - - - SE 32 41 17 22 1012.9 1011.4 0.0
20/11:00pm - - - - - SSE 22 32 12 17 1012.8 1011.3 0.0
20/10:30pm - - - - - S 17 24 9 13 1012.4 1010.9 0.0
20/10:00pm - - - - - S 17 22 9 12 1012.4 1010.9 0.0
20/09:30pm - - - - - SSW 19 22 10 12 1012.5 1011.0 0.0
20/09:00pm - - - - - SSW 19 26 10 14 1012.4 1010.9 0.0
20/08:30pm - - - - - SSW 17 20 9 11 1012.1 1010.6 0.0
20/08:00pm - - - - - SW 17 20 9 11 1011.7 1010.2 0.0
20/07:30pm - - - - - SW 17 20 9 11 1011.4 1010.0 0.0
20/07:00pm - - - - - SW 15 20 8 11 1011.2 1009.8 0.0
20/06:30pm - - - - - WSW 15 19 8 10 1010.9 1009.5 0.0
20/06:00pm - - - - - W 17 24 9 13 1010.7 1009.3 0.0
20/05:30pm - - - - - W 20 28 11 15 1010.4 1009.0 0.0
20/05:00pm - - - - - W 19 28 10 15 1010.3 1008.8 0.0
20/04:30pm - - - - - W 22 33 12 18 1010.2 1008.7 0.0
20/04:00pm - - - - - W 20 30 11 16 1010.2 1008.7 0.0
20/03:30pm - - - - - W 22 35 12 19 1010.1 1008.6 0.0
20/03:00pm - - - - - W 26 41 14 22 1010.3 1008.8 0.0
20/02:30pm - - - - - WNW 24 39 13 21 1010.4 1009.0 0.0
20/02:00pm - - - - - W 20 37 11 20 1010.4 1009.0 0.0
20/01:30pm - - - - - WNW 24 35 13 19 1010.8 1009.4 0.0
20/01:00pm - - - - - W 24 33 13 18 1010.9 1009.5 0.0
20/12:30pm - - - - - W 20 35 11 19 1011.1 1009.7 0.0
20/12:00pm - - - - - WNW 19 30 10 16 1011.3 1009.9 0.0
20/11:30am - - - - - WNW 19 28 10 15 1011.8 1010.3 0.0
20/11:00am - - - - - WNW 20 28 11 15 1012.2 1010.7 0.0
20/10:30am - - - - - WNW 15 22 8 12 1012.4 1010.9 0.0
20/10:00am - - - - - WNW 15 26 8 14 1012.5 1011.0 0.0
20/09:30am - - - - - NW 17 26 9 14 1012.6 1011.1 0.0
20/09:00am - - - - - NW 17 28 9 15 1012.5 1011.0 0.0
20/08:30am - - - - - NNW 17 22 9 12 1012.6 1011.1 0.0
20/08:00am - - - - - N 20 28 11 15 1012.6 1011.1 0.0
20/07:30am - - - - - N 19 24 10 13 1012.3 1010.8 0.0
20/07:00am - - - - - N 13 19 7 10 1012.2 1010.7 0.0
20/06:30am - - - - - NNE 9 15 5 8 1012.1 1010.6 0.0
20/06:00am - - - - - NE 2 7 1 4 1012.2 1010.7 0.0
20/05:30am - - - - - ENE 9 9 5 5 1012.2 1010.7 0.0
20/05:00am - - - - - NE 7 9 4 5 1012.1 1010.6 0.0
20/04:30am - - - - - NE 9 11 5 6 1011.9 1010.4 0.0
20/04:00am - - - - - NNW 9 11 5 6 1011.4 1010.0 0.0
20/03:30am - - - - - NW 9 15 5 8 1011.4 1010.0 0.0
20/03:00am - - - - - NE 11 17 6 9 1011.0 1009.6 0.0
20/02:30am - - - - - N 9 13 5 7 1011.0 1009.6 0.0
20/02:00am - - - - - NNW 7 11 4 6 1011.0 1009.6 0.0
20/01:30am - - - - - NE 13 20 7 11 1010.9 1009.5 0.0
20/01:00am - - - - - NE 19 28 10 15 1010.9 1009.5 0.0
20/12:30am - - - - - ENE 19 26 10 14 1010.9 1009.5 0.0
20/12:00am - - - - - ENE 13 20 7 11 1011.3 1009.9 0.0
 
Date/Time
WST
Temp
°C
App
Temp
°C
Dew
Point
°C
Rel
Hum
%
Delta-T
°C
Wind Press
QNH
hPa
Press
MSL
hPa
Rain since
9am
mm
Dir  Spd
km/h
Gust
km/h
Spd
kts
Gust
kts
19/11:30pm - - - - - E 4 11 2 6 1011.3 1009.9 0.0
19/11:00pm - - - - - CALM 0 0 0 0 1011.7 1010.2 0.0
19/10:30pm - - - - - SE 6 7 3 4 1012.0 1010.5 0.0
19/10:00pm - - - - - CALM 0 0 0 0 1012.2 1010.7 0.0
19/09:30pm - - - - - S 6 7 3 4 1012.4 1010.9 0.0
19/09:00pm - - - - - ESE 9 11 5 6 1012.3 1010.8 0.0

Other Formats:

Comma delimited format used in spreadsheet applications
http://www.bom.gov.au/fwo/IDW60801/IDW60801.95634.axf

JavaScript Object Notation format (JSON) in row-major order
http://www.bom.gov.au/fwo/IDW60801/IDW60801.95634.json